createdAt,value
2019-05-10T00:00:18.827Z,5.92
2019-05-10T00:07:15.844Z,6.00
2019-05-10T00:10:19.298Z,5.47
2019-05-10T00:13:25.790Z,6.55
2019-05-10T00:16:30.024Z,5.67
2019-05-10T00:19:34.327Z,6.00
2019-05-10T00:22:38.739Z,6.00
2019-05-10T00:25:43.103Z,6.17
2019-05-10T00:28:47.552Z,5.83
2019-05-10T00:31:51.764Z,6.25
2019-05-10T00:34:56.019Z,6.35
2019-05-10T00:38:00.467Z,6.28
2019-05-10T00:41:04.808Z,6.80
2019-05-10T00:44:09.099Z,6.42
2019-05-10T00:47:13.317Z,7.60
2019-05-10T00:50:17.530Z,8.00
2019-05-10T00:53:21.920Z,7.28
2019-05-10T00:56:26.235Z,7.75
2019-05-10T00:59:30.707Z,8.30
2019-05-10T01:02:34.922Z,7.25
2019-05-10T01:05:39.282Z,7.97
2019-05-10T01:08:43.586Z,7.83
2019-05-10T01:11:47.894Z,7.92
2019-05-10T01:14:55.158Z,7.97
2019-05-10T01:17:59.540Z,7.78
2019-05-10T01:21:03.764Z,7.85
2019-05-10T01:24:08.182Z,7.37
2019-05-10T01:27:12.499Z,8.05
2019-05-10T01:30:18.121Z,8.23
2019-05-10T01:33:22.405Z,9.15
2019-05-10T01:36:26.642Z,8.50
2019-05-10T01:39:30.964Z,8.30
2019-05-10T01:42:35.273Z,8.65
2019-05-10T01:45:39.589Z,9.75
2019-05-10T01:48:44.013Z,8.13
2019-05-10T01:51:48.294Z,7.87
2019-05-10T01:54:52.775Z,8.18
2019-05-10T01:57:56.983Z,9.00
2019-05-10T02:01:03.679Z,8.40
2019-05-10T02:04:07.986Z,8.53
2019-05-10T02:07:13.922Z,7.40
2019-05-10T02:10:18.283Z,9.45
2019-05-10T02:13:22.606Z,8.08
2019-05-10T02:16:26.975Z,8.73
2019-05-10T02:19:31.298Z,9.18
2019-05-10T02:22:35.645Z,9.35
2019-05-10T02:25:39.907Z,9.50
2019-05-10T02:28:44.185Z,8.68
2019-05-10T02:31:48.484Z,9.53
2019-05-10T02:34:52.723Z,8.70
2019-05-10T02:37:56.983Z,9.10
2019-05-10T02:41:01.538Z,8.88
2019-05-10T02:44:05.866Z,8.45
2019-05-10T02:47:10.225Z,9.05
2019-05-10T02:50:14.613Z,8.85
2019-05-10T02:53:19.078Z,10.38
2019-05-10T02:56:30.308Z,9.15
2019-05-10T02:59:33.157Z,9.35
2019-05-10T03:02:37.858Z,10.03
2019-05-10T03:05:48.166Z,11.15
2019-05-10T03:08:52.294Z,11.43
2019-05-10T03:11:59.523Z,12.35
2019-05-10T03:15:07.141Z,12.95
2019-05-10T03:18:11.330Z,13.68
2019-05-10T03:21:36.375Z,12.37
2019-05-10T03:24:40.853Z,12.43
2019-05-10T03:27:45.214Z,13.20
2019-05-10T03:30:49.516Z,11.85
2019-05-10T03:33:57.426Z,12.93
2019-05-10T03:36:59.783Z,14.18
2019-05-10T03:40:06.260Z,13.50
2019-05-10T03:43:10.602Z,15.63
2019-05-10T03:46:14.923Z,15.80
2019-05-10T03:49:19.150Z,14.73
2019-05-10T03:52:23.448Z,16.05
2019-05-10T03:55:27.810Z,15.28
2019-05-10T03:58:32.089Z,14.78
2019-05-10T04:01:36.465Z,15.72
2019-05-10T04:04:40.790Z,16.62
2019-05-10T04:08:04.147Z,15.90
2019-05-10T04:11:08.533Z,16.52
2019-05-10T04:14:12.814Z,17.20
2019-05-10T04:17:17.152Z,17.35
2019-05-10T04:20:21.414Z,17.55
2019-05-10T04:23:25.836Z,15.95
2019-05-10T04:26:30.061Z,17.32
2019-05-10T04:29:34.490Z,16.45
2019-05-10T04:32:38.714Z,17.25
2019-05-10T04:35:43.089Z,17.80
2019-05-10T04:38:47.308Z,17.48
2019-05-10T04:41:51.782Z,18.60
2019-05-10T04:44:56.083Z,17.67
2019-05-10T04:48:01.959Z,17.12
2019-05-10T04:51:06.343Z,17.90
2019-05-10T04:54:10.632Z,17.90
2019-05-10T04:57:14.938Z,18.77
2019-05-10T05:00:19.344Z,19.32
2019-05-10T05:03:23.658Z,18.40
2019-05-10T05:06:27.976Z,18.27
2019-05-10T05:09:32.246Z,18.42
2019-05-10T05:12:36.615Z,18.40
2019-05-10T05:15:40.933Z,17.40
2019-05-10T05:18:45.496Z,18.30
2019-05-10T05:21:49.950Z,19.23
2019-05-10T05:24:55.209Z,21.52
2019-05-10T05:28:08.023Z,21.65
2019-05-10T05:31:06.421Z,20.12
2019-05-10T05:34:10.725Z,18.57
2019-05-10T05:37:15.132Z,22.42
2019-05-10T05:40:19.479Z,18.48
2019-05-10T05:43:23.845Z,20.30
2019-05-10T05:46:28.511Z,21.60
2019-05-10T05:49:32.829Z,20.05
2019-05-10T05:52:37.376Z,24.82
2019-05-10T05:55:41.699Z,24.63
2019-05-10T05:58:47.107Z,22.42
2019-05-10T06:01:51.725Z,24.20
2019-05-10T06:04:56.001Z,22.85
2019-05-10T06:08:00.287Z,24.30
2019-05-10T06:11:04.572Z,27.65
2019-05-10T06:14:11.207Z,25.20
2019-05-10T06:17:14.968Z,26.00
2019-05-10T06:20:19.362Z,29.15
2019-05-10T06:23:23.611Z,30.65
2019-05-10T06:26:28.739Z,30.35
2019-05-10T06:29:33.238Z,29.23
2019-05-10T06:32:37.510Z,29.42
2019-05-10T06:35:41.766Z,30.90
2019-05-10T06:38:47.646Z,31.10
2019-05-10T06:41:56.024Z,29.37
2019-05-10T06:44:58.051Z,29.48
2019-05-10T06:48:02.452Z,27.77
2019-05-10T06:51:09.621Z,32.38
2019-05-10T06:54:12.781Z,33.33
2019-05-10T06:57:18.063Z,26.70
2019-05-10T07:00:23.257Z,30.12
2019-05-10T07:03:27.605Z,28.70
2019-05-10T07:06:31.986Z,28.77
2019-05-10T07:10:01.922Z,28.17
2019-05-10T07:12:42.363Z,28.77
2019-05-10T07:15:46.764Z,31.25
2019-05-10T07:18:54.902Z,32.65
2019-05-10T07:21:57.128Z,32.63
2019-05-10T07:25:04.319Z,29.63
2019-05-10T07:28:09.702Z,31.27
2019-05-10T07:31:13.793Z,30.02
2019-05-10T07:34:18.070Z,27.98
2019-05-10T07:37:22.932Z,32.45
2019-05-10T07:40:27.597Z,29.23
2019-05-10T07:43:31.856Z,26.48
2019-05-10T07:46:40.233Z,31.65
2019-05-10T07:49:42.276Z,27.07
2019-05-10T07:52:46.719Z,27.48
2019-05-10T07:55:51.020Z,26.37
2019-05-10T07:58:55.454Z,24.27
2019-05-10T08:02:05.626Z,23.73
2019-05-10T08:05:11.032Z,26.33
2019-05-10T08:08:31.432Z,26.60
2019-05-10T08:11:35.740Z,23.62
2019-05-10T08:14:44.492Z,23.65
2019-05-10T08:17:45.972Z,22.05
2019-05-10T08:20:56.645Z,23.80
2019-05-10T08:23:59.066Z,22.87
2019-05-10T08:27:08.008Z,22.02
2019-05-10T08:30:24.368Z,19.42
2019-05-10T08:33:15.395Z,23.30
2019-05-10T08:36:21.791Z,21.05
2019-05-10T08:39:25.872Z,18.87
2019-05-10T08:42:43.732Z,20.35
2019-05-10T08:45:44.178Z,19.77
2019-05-10T08:48:50.381Z,21.25
2019-05-10T08:51:52.249Z,17.62
2019-05-10T08:54:56.761Z,15.15
2019-05-10T08:58:02.938Z,17.60
2019-05-10T09:01:20.398Z,16.73
2019-05-10T09:04:13.769Z,17.15
2019-05-10T09:07:18.417Z,16.17
2019-05-10T09:10:24.219Z,16.85
2019-05-10T09:13:33.557Z,15.83
2019-05-10T09:16:43.140Z,14.28
2019-05-10T09:19:43.513Z,12.45
2019-05-10T09:22:46.616Z,14.35
2019-05-10T09:25:51.865Z,13.68
2019-05-10T09:28:57.837Z,12.23
2019-05-10T09:32:06.270Z,10.75
2019-05-10T09:35:09.302Z,11.33
2019-05-10T09:38:13.837Z,10.75
2019-05-10T09:41:18.262Z,11.45
2019-05-10T09:44:22.979Z,9.90
2019-05-10T09:47:27.452Z,11.00
2019-05-10T09:50:41.454Z,11.60
2019-05-10T09:53:38.462Z,10.40
2019-05-10T09:56:44.618Z,9.60
2019-05-10T09:59:49.035Z,9.33
2019-05-10T10:02:58.557Z,7.00
2019-05-10T10:06:07.446Z,8.33
2019-05-10T10:09:10.822Z,9.23
2019-05-10T10:12:13.880Z,9.68
2019-05-10T10:15:25.292Z,7.87
2019-05-10T10:18:25.490Z,9.13
2019-05-10T10:21:35.074Z,7.85
2019-05-10T10:24:38.656Z,8.73
2019-05-10T10:27:41.967Z,6.78
2019-05-10T10:30:52.759Z,6.87
2019-05-10T10:33:58.323Z,7.50
2019-05-10T10:36:58.454Z,6.08
2019-05-10T10:40:05.435Z,5.90
2019-05-10T10:43:08.791Z,7.30
2019-05-10T10:46:13.323Z,6.50
2019-05-10T10:49:17.839Z,6.70
2019-05-10T10:52:22.389Z,6.97
2019-05-10T10:55:30.590Z,7.28
2019-05-10T10:58:33.068Z,6.05
2019-05-10T11:01:49.141Z,5.70
2019-05-10T11:04:46.747Z,6.60
2019-05-10T11:07:51.193Z,4.50
2019-05-10T11:10:55.844Z,5.12
2019-05-10T11:14:06.822Z,4.65
2019-05-10T11:17:06.297Z,4.78
2019-05-10T11:20:11.497Z,4.47
2019-05-10T11:23:16.414Z,4.20
2019-05-10T11:26:21.738Z,4.80
2019-05-10T11:29:28.049Z,3.17
2019-05-10T11:32:32.393Z,3.52
2019-05-10T11:35:36.812Z,3.50
2019-05-10T11:38:42.047Z,3.62
2019-05-10T11:41:52.933Z,4.00
2019-05-10T11:44:54.509Z,3.52
2019-05-10T11:48:02.075Z,4.20
2019-05-10T11:51:05.673Z,4.35
2019-05-10T11:54:11.313Z,4.47
2019-05-10T11:57:15.687Z,3.90
2019-05-10T12:00:28.438Z,3.83
2019-05-10T12:03:25.964Z,4.17
2019-05-10T12:06:31.969Z,4.20
2019-05-10T12:09:36.501Z,4.37
2019-05-10T12:15:47.135Z,4.78
2019-05-10T12:19:05.323Z,5.35
2019-05-10T12:21:57.398Z,4.60
2019-05-10T12:25:27.309Z,4.10
2019-05-10T12:26:27.644Z,4.80
2019-05-10T12:28:07.715Z,4.20
2019-05-10T12:31:15.073Z,4.30
2019-05-10T12:34:17.982Z,4.25
2019-05-10T12:37:22.319Z,3.80
2019-05-10T12:40:26.571Z,3.70
2019-05-10T12:43:31.104Z,3.62
2019-05-10T12:46:38.757Z,3.58
2019-05-10T12:49:42.248Z,7.08
2019-05-10T12:52:50.520Z,6.65
2019-05-10T12:55:52.503Z,7.60
2019-05-10T12:58:59.332Z,8.25
2019-05-10T13:02:04.330Z,8.03
2019-05-10T13:05:09.027Z,3.42
2019-05-10T13:08:13.435Z,5.62
2019-05-10T13:11:18.897Z,3.80
2019-05-10T13:14:23.740Z,3.40
2019-05-10T13:17:28.035Z,3.00
2019-05-10T13:20:36.549Z,3.05
2019-05-10T13:23:38.272Z,3.08
2019-05-10T13:26:42.653Z,8.90
2019-05-10T13:29:52.812Z,8.75
2019-05-10T13:32:58.847Z,8.50
2019-05-10T13:35:59.121Z,8.80
2019-05-10T13:39:05.422Z,9.50
2019-05-10T13:42:09.892Z,9.50
2019-05-10T13:45:14.270Z,9.85
2019-05-10T13:48:18.562Z,10.43
2019-05-10T13:51:22.963Z,11.00
2019-05-10T13:54:31.197Z,11.25
2019-05-10T13:57:33.480Z,10.53
2019-05-10T14:00:37.892Z,10.48
2019-05-10T14:03:45.388Z,12.07
2019-05-10T14:06:48.533Z,11.73
2019-05-10T14:09:52.896Z,11.73
2019-05-10T14:13:02.578Z,12.10
2019-05-10T14:16:03.748Z,12.53
2019-05-10T14:19:08.124Z,11.90
2019-05-10T14:22:12.493Z,11.97
2019-05-10T14:25:16.778Z,12.95
2019-05-10T14:28:21.047Z,13.10
2019-05-10T14:31:25.345Z,12.07
2019-05-10T14:34:29.602Z,12.13
2019-05-10T14:37:33.920Z,11.80
2019-05-10T14:40:38.230Z,11.83
2019-05-10T14:43:42.509Z,12.70
2019-05-10T14:46:46.777Z,13.00
2019-05-10T14:49:53.255Z,11.97
2019-05-10T14:52:57.687Z,11.20
2019-05-10T14:56:01.961Z,11.15
2019-05-10T14:59:06.375Z,9.63
2019-05-10T15:02:16.723Z,11.08
2019-05-10T15:05:18.312Z,11.57
2019-05-10T15:08:23.098Z,10.55
2019-05-10T15:11:31.738Z,11.12
2019-05-10T15:14:33.477Z,11.38
2019-05-10T15:17:37.769Z,11.40
2019-05-10T15:20:42.122Z,11.83
2019-05-10T15:23:46.511Z,12.60
2019-05-10T15:26:50.871Z,12.85
2019-05-10T15:29:58.795Z,14.13
2019-05-10T15:33:01.191Z,13.68
2019-05-10T15:36:06.324Z,13.95
2019-05-10T15:39:10.591Z,12.93
2019-05-10T15:42:14.899Z,12.88
2019-05-10T15:45:19.629Z,14.13
2019-05-10T15:48:24.118Z,14.55
2019-05-10T15:51:36.431Z,14.87
2019-05-10T15:54:38.287Z,13.95
2019-05-10T15:57:40.482Z,14.47
2019-05-10T16:00:44.821Z,13.75
2019-05-10T16:03:49.087Z,13.78
2019-05-10T16:06:53.320Z,14.20
2019-05-10T16:09:57.503Z,15.93
2019-05-10T16:13:01.749Z,14.50
2019-05-10T16:16:06.056Z,14.80
2019-05-10T16:19:12.979Z,15.23
2019-05-10T16:22:36.495Z,16.10
2019-05-10T16:25:45.433Z,16.12
2019-05-10T16:28:46.782Z,16.52
2019-05-10T16:31:51.148Z,16.82
2019-05-10T16:34:55.378Z,17.77
2019-05-10T16:37:59.699Z,16.57
2019-05-10T16:41:04.057Z,15.58
2019-05-10T16:44:08.411Z,16.02
2019-05-10T16:47:12.756Z,14.23
2019-05-10T16:50:17.151Z,15.32
2019-05-10T16:53:21.447Z,15.08
2019-05-10T16:56:25.851Z,14.85
2019-05-10T16:59:31.414Z,15.03
2019-05-10T17:02:36.684Z,15.65
2019-05-10T17:05:53.029Z,15.75
2019-05-10T17:08:48.122Z,16.20
2019-05-10T17:11:52.382Z,15.08
2019-05-10T17:15:02.432Z,15.55
2019-05-10T17:18:02.862Z,15.23
2019-05-10T17:21:07.201Z,15.40
2019-05-10T17:24:11.470Z,15.93
2019-05-10T17:27:15.853Z,14.65
2019-05-10T17:30:22.419Z,14.78
2019-05-10T17:33:26.415Z,13.55
2019-05-10T17:36:30.809Z,13.45
2019-05-10T17:39:35.167Z,12.73
2019-05-10T17:42:41.377Z,12.80
2019-05-10T17:45:45.810Z,12.35
2019-05-10T17:48:50.121Z,12.78
2019-05-10T17:51:54.458Z,12.85
2019-05-10T17:54:58.812Z,13.65
2019-05-10T17:58:03.355Z,13.55
2019-05-10T18:01:07.725Z,13.93
2019-05-10T18:04:12.153Z,13.83
2019-05-10T18:07:16.428Z,14.58
2019-05-10T18:10:20.682Z,14.33
2019-05-10T18:13:25.047Z,12.88
2019-05-10T18:16:29.389Z,13.22
2019-05-10T18:19:33.651Z,12.90
2019-05-10T18:22:43.709Z,13.20
2019-05-10T18:25:44.173Z,13.83
2019-05-10T18:28:48.702Z,12.40
2019-05-10T18:31:58.321Z,12.37
2019-05-10T18:34:59.233Z,13.30
2019-05-10T18:38:03.716Z,12.63
2019-05-10T18:41:10.148Z,13.75
2019-05-10T18:44:14.588Z,13.72
2019-05-10T18:47:20.414Z,14.78
2019-05-10T18:50:24.840Z,14.83
2019-05-10T18:53:29.389Z,14.35
2019-05-10T18:56:33.868Z,14.38
2019-05-10T18:59:39.814Z,13.20
2019-05-10T19:02:44.348Z,13.48
2019-05-10T19:05:48.767Z,13.62
2019-05-10T19:08:53.468Z,13.60
2019-05-10T19:11:57.955Z,13.95
2019-05-10T19:15:09.068Z,14.28
2019-05-10T19:18:27.949Z,13.80
2019-05-10T19:21:32.680Z,14.75
2019-05-10T19:24:37.189Z,13.35
2019-05-10T19:27:44.688Z,14.45
2019-05-10T19:30:52.672Z,13.93
2019-05-10T19:33:53.804Z,13.53
2019-05-10T19:36:58.164Z,14.60
2019-05-10T19:40:02.832Z,14.93
2019-05-10T19:43:08.247Z,15.18
2019-05-10T19:46:12.643Z,14.05
2019-05-10T19:49:17.098Z,14.55
2019-05-10T19:52:26.226Z,14.18
2019-05-10T19:55:27.723Z,14.40
2019-05-10T19:58:33.923Z,15.28
2019-05-10T20:01:38.261Z,14.83
2019-05-10T20:04:42.964Z,13.90
2019-05-10T20:07:47.246Z,16.00
2019-05-10T20:10:51.536Z,15.80
2019-05-10T20:13:55.910Z,14.53
2019-05-10T20:17:00.209Z,15.20
2019-05-10T20:20:04.812Z,16.40
2019-05-10T20:23:09.150Z,14.58
2019-05-10T20:26:13.468Z,15.05
2019-05-10T20:29:17.878Z,15.78
2019-05-10T20:32:22.271Z,16.50
2019-05-10T20:35:26.547Z,15.43
2019-05-10T20:38:30.995Z,16.55
2019-05-10T20:41:35.419Z,18.10
2019-05-10T20:44:39.794Z,17.10
2019-05-10T20:47:44.370Z,17.57
2019-05-10T20:50:48.789Z,17.00
2019-05-10T20:53:53.103Z,16.57
2019-05-10T20:56:57.523Z,16.82
2019-05-10T21:00:01.913Z,16.35
2019-05-10T21:03:06.271Z,16.57
2019-05-10T21:06:10.569Z,17.55
2019-05-10T21:09:14.884Z,18.12
2019-05-10T21:12:19.272Z,17.17
2019-05-10T21:15:23.561Z,17.75
2019-05-10T21:18:27.759Z,17.07
2019-05-10T21:21:32.029Z,17.57
2019-05-10T21:24:36.308Z,18.30
2019-05-10T21:27:40.664Z,17.70
2019-05-10T21:30:44.949Z,18.82
2019-05-10T21:33:49.294Z,18.65
2019-05-10T21:36:53.586Z,19.55
2019-05-10T21:40:00.585Z,18.42
2019-05-10T21:43:04.949Z,18.42
2019-05-10T21:46:09.206Z,20.40
2019-05-10T21:49:13.571Z,20.50
2019-05-10T21:52:17.884Z,20.70
2019-05-10T21:55:22.255Z,20.25
2019-05-10T21:58:26.563Z,22.00
2019-05-10T22:01:30.889Z,19.17
2019-05-10T22:04:35.288Z,19.45
2019-05-10T22:07:39.575Z,20.72
2019-05-10T22:10:43.920Z,20.75
2019-05-10T22:13:48.236Z,20.35
2019-05-10T22:16:52.567Z,19.60
2019-05-10T22:19:56.842Z,21.10
2019-05-10T22:23:01.118Z,19.62
2019-05-10T22:26:05.421Z,19.75
2019-05-10T22:29:09.847Z,21.57
2019-05-10T22:32:14.122Z,21.33
2019-05-10T22:35:18.454Z,21.37
2019-05-10T22:38:22.818Z,21.25
2019-05-10T22:41:27.188Z,22.25
2019-05-10T22:44:31.450Z,21.65
2019-05-10T22:47:35.766Z,20.27
2019-05-10T22:50:39.977Z,22.20
2019-05-10T22:53:44.384Z,22.52
2019-05-10T22:56:50.338Z,21.87
2019-05-10T22:59:54.666Z,23.20
2019-05-10T23:02:58.955Z,20.68
2019-05-10T23:06:03.291Z,24.30
2019-05-10T23:09:23.559Z,22.30
2019-05-10T23:12:14.860Z,23.35
2019-05-10T23:15:19.088Z,22.02
2019-05-10T23:18:23.460Z,25.08
2019-05-10T23:21:27.750Z,24.25
2019-05-10T23:24:39.467Z,23.00
2019-05-10T23:27:43.771Z,23.00
2019-05-10T23:30:48.176Z,24.43
2019-05-10T23:33:52.460Z,22.85
2019-05-10T23:36:56.848Z,24.00
2019-05-10T23:40:01.090Z,24.87
2019-05-10T23:43:05.487Z,22.60
2019-05-10T23:46:09.810Z,24.07
2019-05-10T23:49:14.109Z,24.80
2019-05-10T23:52:18.478Z,23.30
2019-05-10T23:55:22.729Z,23.83
2019-05-10T23:58:26.944Z,25.30
